createdAt,value
2017-07-19T00:01:28.626Z,99.00
2017-07-19T00:03:56.785Z,98.90
2017-07-19T00:06:24.921Z,99.10
2017-07-19T00:08:53.073Z,99.10
2017-07-19T00:11:21.215Z,99.20
2017-07-19T00:13:49.333Z,99.20
2017-07-19T00:16:17.647Z,98.80
2017-07-19T00:18:45.799Z,98.90
2017-07-19T00:21:14.712Z,99.10
2017-07-19T00:23:43.646Z,99.30
2017-07-19T00:26:11.785Z,99.20
2017-07-19T00:28:39.929Z,99.40
2017-07-19T00:31:08.092Z,99.60
2017-07-19T00:33:36.242Z,99.50
2017-07-19T00:36:04.494Z,99.50
2017-07-19T00:38:32.654Z,99.60
2017-07-19T00:41:00.798Z,99.50
2017-07-19T00:43:28.929Z,99.70
2017-07-19T00:45:57.127Z,99.60
2017-07-19T00:48:25.269Z,99.50
2017-07-19T00:50:53.472Z,99.50
2017-07-19T00:53:21.620Z,99.80
2017-07-19T00:55:49.759Z,99.90
2017-07-19T00:58:17.900Z,99.90
2017-07-19T01:00:46.094Z,99.90
2017-07-19T01:03:14.237Z,99.90
2017-07-19T01:05:42.376Z,99.90
2017-07-19T01:08:10.563Z,99.90
2017-07-19T01:10:38.681Z,99.90
2017-07-19T01:13:06.811Z,99.90
2017-07-19T01:15:35.125Z,99.90
2017-07-19T01:18:03.271Z,99.90
2017-07-19T01:20:31.476Z,99.90
2017-07-19T01:22:59.645Z,99.90
2017-07-19T01:25:27.816Z,99.90
2017-07-19T01:27:55.936Z,99.90
2017-07-19T01:30:24.078Z,99.90
2017-07-19T01:32:52.225Z,99.90
2017-07-19T01:35:20.396Z,99.90
2017-07-19T01:37:48.526Z,99.90
2017-07-19T01:40:16.668Z,99.90
2017-07-19T01:42:44.822Z,99.90
2017-07-19T01:45:13.061Z,99.90
2017-07-19T01:47:41.210Z,99.90
2017-07-19T01:50:09.376Z,99.90
2017-07-19T01:52:37.525Z,99.90
2017-07-19T01:55:05.662Z,99.90
2017-07-19T01:57:33.825Z,99.90
2017-07-19T02:00:01.977Z,99.90
2017-07-19T02:02:30.116Z,99.90
2017-07-19T02:04:58.228Z,99.90
2017-07-19T02:07:26.373Z,99.90
2017-07-19T02:09:54.529Z,99.90
2017-07-19T02:12:22.671Z,99.90
2017-07-19T02:14:51.683Z,99.90
2017-07-19T02:17:19.847Z,99.90
2017-07-19T02:19:48.034Z,99.90
2017-07-19T02:22:16.158Z,99.90
2017-07-19T02:24:44.324Z,99.90
2017-07-19T02:27:12.636Z,99.90
2017-07-19T02:29:40.764Z,99.90
2017-07-19T02:32:09.703Z,99.90
2017-07-19T02:34:37.816Z,99.90
2017-07-19T02:37:05.976Z,99.90
2017-07-19T02:39:34.083Z,99.90
2017-07-19T02:42:02.197Z,99.90
2017-07-19T02:44:30.344Z,99.90
2017-07-19T02:46:58.543Z,99.90
2017-07-19T02:49:26.705Z,99.90
2017-07-19T02:51:54.824Z,99.90
2017-07-19T02:54:22.967Z,99.90
2017-07-19T02:56:51.123Z,99.90
2017-07-19T02:59:19.273Z,99.90
2017-07-19T03:01:47.520Z,99.90
2017-07-19T03:04:15.654Z,99.90
2017-07-19T03:06:43.787Z,99.90
2017-07-19T03:09:11.911Z,99.90
2017-07-19T03:11:41.414Z,99.90
2017-07-19T03:14:09.656Z,99.90
2017-07-19T03:16:37.794Z,99.90
2017-07-19T03:19:05.934Z,99.90
2017-07-19T03:21:34.201Z,99.90
2017-07-19T03:24:02.339Z,99.90
2017-07-19T03:26:31.349Z,99.90
2017-07-19T03:28:59.491Z,99.90
2017-07-19T03:31:27.763Z,99.90
2017-07-19T03:33:55.989Z,99.90
2017-07-19T03:36:24.203Z,99.90
2017-07-19T03:38:52.392Z,99.90
2017-07-19T03:41:20.532Z,99.90
2017-07-19T03:43:48.711Z,99.90
2017-07-19T03:46:16.836Z,99.90
2017-07-19T03:48:44.968Z,99.90
2017-07-19T03:51:13.127Z,99.90
2017-07-19T03:53:41.686Z,99.90
2017-07-19T03:56:09.846Z,99.90
2017-07-19T03:58:38.102Z,99.90
2017-07-19T04:01:07.025Z,99.90
2017-07-19T04:03:35.242Z,99.90
2017-07-19T04:06:03.621Z,99.90
2017-07-19T04:08:32.393Z,99.90
2017-07-19T04:11:00.581Z,99.90
2017-07-19T04:13:29.597Z,99.90
2017-07-19T04:15:57.746Z,99.90
2017-07-19T04:18:25.920Z,99.90
2017-07-19T04:20:54.082Z,99.90
2017-07-19T04:23:22.294Z,99.90
2017-07-19T04:25:50.412Z,99.90
2017-07-19T04:28:18.549Z,99.90
2017-07-19T04:30:46.679Z,99.90
2017-07-19T04:33:14.832Z,99.90
2017-07-19T04:35:42.939Z,99.90
2017-07-19T04:38:11.077Z,99.90
2017-07-19T04:40:39.240Z,99.90
2017-07-19T04:43:07.496Z,99.90
2017-07-19T04:45:35.661Z,99.90
2017-07-19T04:48:03.785Z,99.90
2017-07-19T04:50:31.935Z,99.90
2017-07-19T04:53:00.080Z,99.90
2017-07-19T04:55:28.215Z,99.90
2017-07-19T04:57:56.433Z,99.90
2017-07-19T05:00:24.562Z,99.90
2017-07-19T05:02:52.702Z,99.90
2017-07-19T05:05:21.031Z,99.90
2017-07-19T05:07:49.154Z,99.90
2017-07-19T05:10:17.383Z,99.90
2017-07-19T05:12:45.526Z,99.90
2017-07-19T05:15:14.437Z,99.90
2017-07-19T05:17:42.605Z,99.90
2017-07-19T05:20:11.495Z,99.70
2017-07-19T05:22:39.680Z,99.70
2017-07-19T05:25:07.916Z,99.80
2017-07-19T05:27:36.172Z,99.70
2017-07-19T05:30:04.313Z,99.60
2017-07-19T05:32:32.432Z,99.50
2017-07-19T05:35:00.999Z,99.50
2017-07-19T05:37:29.903Z,99.70
2017-07-19T05:39:58.020Z,99.50
2017-07-19T05:42:26.256Z,99.50
2017-07-19T05:44:54.380Z,99.60
2017-07-19T05:47:22.540Z,99.50
2017-07-19T05:49:50.686Z,99.50
2017-07-19T05:52:18.809Z,99.40
2017-07-19T05:54:46.942Z,99.30
2017-07-19T05:57:15.086Z,99.30
2017-07-19T05:59:43.987Z,98.80
2017-07-19T06:02:12.198Z,98.80
2017-07-19T06:04:40.348Z,98.50
2017-07-19T06:07:08.508Z,98.60
2017-07-19T06:09:36.658Z,98.50
2017-07-19T06:12:04.805Z,98.60
2017-07-19T06:14:32.917Z,98.50
2017-07-19T06:17:01.074Z,98.40
2017-07-19T06:19:30.042Z,98.20
2017-07-19T06:21:58.143Z,98.00
2017-07-19T06:24:26.274Z,98.10
2017-07-19T06:26:54.462Z,98.20
2017-07-19T06:29:22.616Z,98.20
2017-07-19T06:31:50.781Z,98.20
2017-07-19T06:34:19.110Z,98.10
2017-07-19T06:36:48.281Z,98.00
2017-07-19T06:39:16.422Z,98.00
2017-07-19T06:41:44.552Z,98.00
2017-07-19T06:44:12.701Z,98.00
2017-07-19T06:46:40.859Z,97.80
2017-07-19T06:49:09.023Z,97.60
2017-07-19T06:51:37.833Z,97.40
2017-07-19T06:54:06.015Z,97.60
2017-07-19T06:56:34.160Z,97.60
2017-07-19T06:59:02.353Z,97.40
2017-07-19T07:01:30.592Z,97.00
2017-07-19T07:03:58.721Z,96.50
2017-07-19T07:06:26.855Z,95.90
2017-07-19T07:08:54.989Z,95.50
2017-07-19T07:11:23.855Z,94.70
2017-07-19T07:13:52.199Z,94.60
2017-07-19T07:16:21.049Z,94.40
2017-07-19T07:18:49.178Z,94.00
2017-07-19T07:21:17.366Z,93.90
2017-07-19T07:23:45.506Z,93.30
2017-07-19T07:26:13.806Z,92.20
2017-07-19T07:28:42.313Z,91.40
2017-07-19T07:31:10.488Z,92.20
2017-07-19T07:33:38.640Z,91.70
2017-07-19T07:36:06.890Z,91.30
2017-07-19T07:38:35.029Z,91.50
2017-07-19T07:41:03.168Z,90.70
2017-07-19T07:43:31.275Z,90.30
2017-07-19T07:45:59.442Z,90.00
2017-07-19T07:48:28.383Z,89.00
2017-07-19T07:50:56.508Z,87.70
2017-07-19T07:53:24.674Z,88.10
2017-07-19T07:55:52.890Z,87.30
2017-07-19T07:58:21.036Z,87.10
2017-07-19T08:00:49.965Z,86.70
2017-07-19T08:03:18.172Z,85.50
2017-07-19T08:05:47.025Z,86.20
2017-07-19T08:08:15.195Z,86.50
2017-07-19T08:10:43.338Z,86.10
2017-07-19T08:13:11.550Z,83.40
2017-07-19T08:15:39.728Z,81.90
2017-07-19T08:18:07.848Z,82.40
2017-07-19T08:20:36.041Z,81.90
2017-07-19T08:23:04.170Z,81.30
2017-07-19T08:25:32.394Z,80.50
2017-07-19T08:28:00.548Z,80.80
2017-07-19T08:30:28.687Z,78.70
2017-07-19T08:32:56.947Z,78.10
2017-07-19T08:35:25.161Z,77.80
2017-07-19T08:37:53.364Z,75.90
2017-07-19T08:40:22.748Z,76.00
2017-07-19T08:42:50.894Z,76.00
2017-07-19T08:45:19.101Z,74.70
2017-07-19T08:47:47.782Z,75.00
2017-07-19T08:50:16.251Z,74.70
2017-07-19T08:52:45.197Z,74.20
2017-07-19T08:55:13.379Z,72.50
2017-07-19T08:57:41.612Z,73.60
2017-07-19T09:00:10.489Z,70.50
2017-07-19T09:02:38.750Z,72.00
2017-07-19T09:05:07.001Z,71.10
2017-07-19T09:07:35.131Z,71.70
2017-07-19T09:10:03.405Z,70.50
2017-07-19T09:12:31.597Z,70.70
2017-07-19T09:14:59.773Z,68.70
2017-07-19T09:17:27.998Z,68.30
2017-07-19T09:19:56.158Z,66.60
2017-07-19T09:22:24.323Z,66.80
2017-07-19T09:24:52.474Z,66.30
2017-07-19T09:27:20.644Z,64.60
2017-07-19T09:29:48.781Z,64.90
2017-07-19T09:32:16.994Z,63.40
2017-07-19T09:34:45.199Z,63.20
2017-07-19T09:37:13.344Z,62.70
2017-07-19T09:39:41.748Z,61.50
2017-07-19T09:42:09.876Z,62.00
2017-07-19T09:44:38.052Z,61.70
2017-07-19T09:47:06.207Z,63.80
2017-07-19T09:49:34.369Z,64.50
2017-07-19T09:52:02.626Z,62.10
2017-07-19T09:54:30.740Z,61.30
2017-07-19T09:56:59.814Z,60.80
2017-07-19T09:59:28.024Z,60.70
2017-07-19T10:01:56.157Z,59.20
2017-07-19T10:04:24.422Z,59.70
2017-07-19T10:06:52.765Z,60.30
2017-07-19T10:09:20.958Z,61.70
2017-07-19T10:11:49.111Z,60.70
2017-07-19T10:14:17.352Z,59.70
2017-07-19T10:16:45.497Z,58.80
2017-07-19T10:19:13.617Z,57.10
2017-07-19T10:21:41.800Z,56.50
2017-07-19T10:24:09.922Z,57.30
2017-07-19T10:26:38.059Z,56.90
2017-07-19T10:29:06.215Z,57.70
2017-07-19T10:31:34.341Z,57.00
2017-07-19T10:34:02.511Z,57.50
2017-07-19T10:36:30.650Z,57.90
2017-07-19T10:38:58.755Z,57.40
2017-07-19T10:41:26.919Z,57.10
2017-07-19T10:43:55.323Z,56.90
2017-07-19T10:46:23.482Z,56.10
2017-07-19T10:48:51.602Z,55.20
2017-07-19T10:51:19.738Z,55.80
2017-07-19T10:53:47.879Z,56.30
2017-07-19T10:56:16.854Z,55.20
2017-07-19T10:58:45.013Z,54.40
2017-07-19T11:01:13.144Z,54.50
2017-07-19T11:03:41.274Z,54.90
2017-07-19T11:06:09.431Z,55.20
2017-07-19T11:08:37.568Z,54.80
2017-07-19T11:11:05.724Z,55.00
2017-07-19T11:13:33.853Z,54.40
2017-07-19T11:16:03.049Z,55.30
2017-07-19T11:18:31.989Z,54.20
2017-07-19T11:21:00.117Z,54.10
2017-07-19T11:23:28.276Z,53.30
2017-07-19T11:25:56.409Z,54.00
2017-07-19T11:28:25.313Z,54.80
2017-07-19T11:30:53.509Z,54.90
2017-07-19T11:33:22.398Z,54.80
2017-07-19T11:35:50.532Z,54.70
2017-07-19T11:38:18.679Z,55.50
2017-07-19T11:40:47.597Z,54.80
2017-07-19T11:43:15.774Z,54.70
2017-07-19T11:45:43.911Z,54.50
2017-07-19T11:48:12.078Z,54.20
2017-07-19T11:50:40.188Z,53.80
2017-07-19T11:53:08.345Z,54.50
2017-07-19T11:55:36.503Z,54.90
2017-07-19T11:58:04.643Z,54.90
2017-07-19T12:00:32.783Z,54.40
2017-07-19T12:03:00.911Z,54.70
2017-07-19T12:05:29.141Z,54.40
2017-07-19T12:07:57.280Z,53.70
2017-07-19T12:10:25.412Z,53.90
2017-07-19T12:12:53.692Z,53.20
2017-07-19T12:15:22.588Z,53.20
2017-07-19T12:17:50.701Z,53.20
2017-07-19T12:20:20.256Z,54.20
2017-07-19T12:22:49.152Z,54.80
2017-07-19T12:25:17.312Z,54.70
2017-07-19T12:27:45.461Z,54.90
2017-07-19T12:30:14.371Z,54.20
2017-07-19T12:32:43.325Z,52.60
2017-07-19T12:35:11.953Z,52.60
2017-07-19T12:37:40.173Z,52.60
2017-07-19T12:40:08.299Z,52.00
2017-07-19T12:42:36.413Z,51.80
2017-07-19T12:45:04.605Z,52.40
2017-07-19T12:47:33.484Z,51.50
2017-07-19T12:50:01.653Z,51.40
2017-07-19T12:52:29.797Z,51.50
2017-07-19T12:54:59.193Z,52.20
2017-07-19T12:57:27.347Z,52.20
2017-07-19T12:59:55.479Z,51.40
2017-07-19T13:02:23.619Z,50.80
2017-07-19T13:04:52.641Z,51.50
2017-07-19T13:07:20.761Z,51.50
2017-07-19T13:09:48.898Z,51.80
2017-07-19T13:12:17.002Z,52.40
2017-07-19T13:14:45.973Z,51.20
2017-07-19T13:17:14.689Z,51.40
2017-07-19T13:19:42.936Z,50.90
2017-07-19T13:22:11.087Z,51.80
2017-07-19T13:24:39.361Z,49.90
2017-07-19T13:27:07.535Z,50.90
2017-07-19T13:29:36.451Z,51.30
2017-07-19T13:32:04.588Z,52.70
2017-07-19T13:34:33.497Z,52.60
2017-07-19T13:37:01.618Z,51.60
2017-07-19T13:39:29.801Z,50.80
2017-07-19T13:41:57.928Z,50.80
2017-07-19T13:44:26.061Z,51.70
2017-07-19T13:46:54.271Z,51.80
2017-07-19T13:49:22.405Z,50.40
2017-07-19T13:51:50.585Z,50.10
2017-07-19T13:54:19.382Z,51.20
2017-07-19T13:56:47.900Z,51.60
2017-07-19T13:59:16.146Z,50.60
2017-07-19T14:01:44.280Z,50.00
2017-07-19T14:04:12.516Z,51.00
2017-07-19T14:06:40.643Z,51.30
2017-07-19T14:09:08.776Z,52.50
2017-07-19T14:11:36.923Z,51.20
2017-07-19T14:14:05.060Z,51.30
2017-07-19T14:16:33.254Z,51.10
2017-07-19T14:19:01.369Z,52.60
2017-07-19T14:21:30.430Z,52.60
2017-07-19T14:23:59.341Z,53.10
2017-07-19T14:26:27.461Z,53.00
2017-07-19T14:28:55.607Z,53.10
2017-07-19T14:31:23.946Z,52.80
2017-07-19T14:33:52.080Z,53.20
2017-07-19T14:36:20.229Z,53.80
2017-07-19T14:38:49.116Z,55.00
2017-07-19T14:41:17.295Z,54.60
2017-07-19T14:43:45.449Z,54.10
2017-07-19T14:46:13.576Z,53.70
2017-07-19T14:48:41.738Z,54.80
2017-07-19T14:51:09.850Z,54.60
2017-07-19T14:53:37.996Z,55.30
2017-07-19T14:56:06.127Z,55.40
2017-07-19T14:58:34.266Z,56.00
2017-07-19T15:01:02.426Z,56.00
2017-07-19T15:03:30.540Z,56.40
2017-07-19T15:05:58.707Z,56.80
2017-07-19T15:08:26.831Z,57.10
2017-07-19T15:10:54.969Z,57.10
2017-07-19T15:13:23.132Z,57.90
2017-07-19T15:15:51.269Z,58.20
2017-07-19T15:18:19.429Z,58.40
2017-07-19T15:20:47.549Z,58.90
2017-07-19T15:23:15.746Z,58.50
2017-07-19T15:25:43.912Z,59.40
2017-07-19T15:28:12.037Z,61.30
2017-07-19T15:30:40.194Z,61.60
2017-07-19T15:33:08.340Z,62.50
2017-07-19T15:35:36.492Z,62.70
2017-07-19T15:38:04.652Z,63.20
2017-07-19T15:40:33.745Z,63.30
2017-07-19T15:43:02.651Z,65.00
2017-07-19T15:45:30.769Z,65.00
2017-07-19T15:47:58.967Z,64.50
2017-07-19T15:50:27.194Z,65.00
2017-07-19T15:52:55.345Z,65.40
2017-07-19T15:55:24.877Z,66.00
2017-07-19T15:57:53.010Z,66.00
2017-07-19T16:00:21.151Z,66.60
2017-07-19T16:02:49.417Z,66.30
2017-07-19T16:05:19.234Z,67.10
2017-07-19T16:07:47.402Z,67.10
2017-07-19T16:10:15.537Z,67.30
2017-07-19T16:12:43.654Z,67.80
2017-07-19T16:15:11.809Z,68.40
2017-07-19T16:17:39.951Z,68.30
2017-07-19T16:20:08.912Z,68.00
2017-07-19T16:22:37.043Z,68.00
2017-07-19T16:25:05.177Z,68.70
2017-07-19T16:27:33.333Z,68.60
2017-07-19T16:30:01.523Z,68.90
2017-07-19T16:32:34.524Z,70.00
2017-07-19T16:35:04.324Z,70.30
2017-07-19T16:37:32.496Z,70.20
2017-07-19T16:40:00.649Z,71.20
2017-07-19T16:42:29.542Z,72.90
2017-07-19T16:44:58.419Z,73.40
2017-07-19T16:47:29.862Z,72.60
2017-07-19T16:49:57.985Z,73.10
2017-07-19T16:52:26.171Z,72.90
2017-07-19T16:54:55.216Z,73.20
2017-07-19T16:57:23.516Z,73.10
2017-07-19T16:59:52.340Z,74.00
2017-07-19T17:02:20.506Z,78.50
2017-07-19T17:04:48.655Z,78.80
2017-07-19T17:07:16.778Z,80.30
2017-07-19T17:09:44.943Z,78.80
2017-07-19T17:12:13.055Z,80.00
2017-07-19T17:14:42.251Z,80.00
2017-07-19T17:17:10.411Z,80.20
2017-07-19T17:19:38.566Z,81.20
2017-07-19T17:22:06.732Z,81.90
2017-07-19T17:24:34.862Z,82.10
2017-07-19T17:27:02.999Z,81.90
2017-07-19T17:29:31.171Z,82.80
2017-07-19T17:32:00.412Z,82.90
2017-07-19T17:34:29.487Z,83.40
2017-07-19T17:36:57.907Z,85.10
2017-07-19T17:39:26.092Z,84.10
2017-07-19T17:41:54.261Z,86.50
2017-07-19T17:44:22.483Z,86.00
2017-07-19T17:46:50.662Z,85.40
2017-07-19T17:49:19.602Z,87.10
2017-07-19T17:51:47.791Z,87.20
2017-07-19T17:54:16.704Z,85.70
2017-07-19T17:56:44.841Z,85.60
2017-07-19T17:59:13.049Z,85.90
2017-07-19T18:01:41.253Z,84.80
2017-07-19T18:04:09.516Z,85.40
2017-07-19T18:06:37.653Z,88.40
2017-07-19T18:09:05.927Z,86.70
2017-07-19T18:11:34.172Z,87.30
2017-07-19T18:14:02.344Z,86.90
2017-07-19T18:16:30.930Z,87.40
2017-07-19T18:18:59.052Z,88.00
2017-07-19T18:21:28.470Z,88.40
2017-07-19T18:23:56.601Z,87.70
2017-07-19T18:26:24.770Z,87.70
2017-07-19T18:28:52.947Z,89.30
2017-07-19T18:31:21.068Z,90.70
2017-07-19T18:33:50.867Z,90.10
2017-07-19T18:36:19.047Z,90.10
2017-07-19T18:38:47.175Z,89.80
2017-07-19T18:41:15.440Z,90.40
2017-07-19T18:43:44.508Z,90.00
2017-07-19T18:46:13.482Z,90.40
2017-07-19T18:48:42.137Z,90.30
2017-07-19T18:51:10.363Z,90.60
2017-07-19T18:53:39.100Z,90.90
2017-07-19T18:56:07.301Z,91.60
2017-07-19T18:58:35.462Z,91.40
2017-07-19T19:01:04.538Z,91.70
2017-07-19T19:03:32.696Z,91.10
2017-07-19T19:06:00.856Z,91.30
2017-07-19T19:08:29.087Z,91.70
2017-07-19T19:10:58.141Z,91.50
2017-07-19T19:13:28.193Z,91.90
2017-07-19T19:15:56.784Z,91.00
2017-07-19T19:18:25.870Z,91.60
2017-07-19T19:20:54.058Z,91.90
2017-07-19T19:23:22.189Z,92.60
2017-07-19T19:25:50.699Z,92.00
2017-07-19T19:28:18.853Z,92.80
2017-07-19T19:30:47.003Z,93.20
2017-07-19T19:33:15.156Z,92.30
2017-07-19T19:35:44.595Z,92.90
2017-07-19T19:38:13.251Z,93.00
2017-07-19T19:40:42.521Z,93.10
2017-07-19T19:43:10.659Z,93.20
2017-07-19T19:45:38.882Z,93.60
2017-07-19T19:48:07.015Z,93.10
2017-07-19T19:50:35.189Z,93.10
2017-07-19T19:53:03.677Z,93.70
2017-07-19T19:55:31.848Z,93.30
2017-07-19T19:58:00.032Z,93.60
2017-07-19T20:00:29.101Z,93.50
2017-07-19T20:02:57.476Z,93.80
2017-07-19T20:05:25.638Z,93.30
2017-07-19T20:07:54.563Z,93.90
2017-07-19T20:10:23.496Z,93.90
2017-07-19T20:12:52.531Z,94.70
2017-07-19T20:15:20.682Z,94.60
2017-07-19T20:17:48.918Z,94.20
2017-07-19T20:20:17.955Z,94.60
2017-07-19T20:22:46.151Z,94.70
2017-07-19T20:25:14.303Z,94.60
2017-07-19T20:27:42.423Z,94.50
2017-07-19T20:30:10.576Z,94.60
2017-07-19T20:32:39.660Z,95.00
2017-07-19T20:35:07.832Z,95.10
2017-07-19T20:37:36.840Z,95.00
2017-07-19T20:40:05.779Z,95.30
2017-07-19T20:42:33.975Z,95.20
2017-07-19T20:45:02.703Z,95.30
2017-07-19T20:47:30.872Z,95.90
2017-07-19T20:49:59.025Z,95.70
2017-07-19T20:52:27.149Z,95.70
2017-07-19T20:54:55.326Z,95.60
2017-07-19T20:57:23.444Z,96.20
2017-07-19T20:59:51.602Z,95.60
2017-07-19T21:02:19.781Z,96.20
2017-07-19T21:04:48.696Z,95.90
2017-07-19T21:07:17.621Z,96.30
2017-07-19T21:09:45.744Z,96.30
2017-07-19T21:12:13.917Z,96.40
2017-07-19T21:14:42.060Z,95.70
2017-07-19T21:17:10.201Z,95.90
2017-07-19T21:19:38.406Z,96.30
2017-07-19T21:22:07.105Z,95.90
2017-07-19T21:24:35.281Z,96.60
2017-07-19T21:27:03.489Z,96.10
2017-07-19T21:29:31.635Z,96.30
2017-07-19T21:31:59.777Z,96.40
2017-07-19T21:34:28.677Z,96.70
2017-07-19T21:36:57.502Z,96.70
2017-07-19T21:39:27.158Z,96.80
2017-07-19T21:41:56.069Z,97.00
2017-07-19T21:44:24.980Z,97.00
2017-07-19T21:46:53.919Z,96.90
2017-07-19T21:49:22.084Z,97.20
2017-07-19T21:51:50.224Z,97.20
2017-07-19T21:54:18.409Z,97.40
2017-07-19T21:56:46.579Z,97.30
2017-07-19T21:59:14.716Z,97.30
2017-07-19T22:01:43.639Z,97.20
2017-07-19T22:04:11.808Z,97.10
2017-07-19T22:06:39.958Z,97.00
2017-07-19T22:09:08.206Z,96.80
2017-07-19T22:11:36.932Z,96.90
2017-07-19T22:14:05.114Z,96.80
2017-07-19T22:16:33.256Z,97.00
2017-07-19T22:19:01.398Z,97.10
2017-07-19T22:21:29.529Z,96.60
2017-07-19T22:23:57.668Z,96.40
2017-07-19T22:26:25.810Z,96.50
2017-07-19T22:28:53.954Z,96.50
2017-07-19T22:31:22.303Z,96.30
2017-07-19T22:33:50.473Z,97.00
2017-07-19T22:36:18.609Z,96.50
2017-07-19T22:38:46.774Z,96.20
2017-07-19T22:41:14.905Z,96.40
2017-07-19T22:43:43.163Z,96.90
2017-07-19T22:46:11.316Z,96.40
2017-07-19T22:48:39.465Z,96.50
2017-07-19T22:51:07.654Z,96.40
2017-07-19T22:53:35.795Z,96.70
2017-07-19T22:56:03.970Z,97.00
2017-07-19T22:58:33.375Z,97.10
2017-07-19T23:01:01.622Z,97.10
2017-07-19T23:03:29.784Z,97.40
2017-07-19T23:05:57.911Z,97.20
2017-07-19T23:08:26.088Z,97.40
2017-07-19T23:10:55.062Z,97.20
2017-07-19T23:13:23.957Z,97.30
2017-07-19T23:15:52.800Z,97.30
2017-07-19T23:18:20.941Z,97.20
2017-07-19T23:20:49.116Z,97.10
2017-07-19T23:23:17.241Z,97.10
2017-07-19T23:25:45.368Z,97.20
2017-07-19T23:28:13.616Z,97.70
2017-07-19T23:30:41.793Z,97.10
2017-07-19T23:33:09.971Z,97.10
2017-07-19T23:35:38.124Z,97.30
2017-07-19T23:38:06.276Z,97.40
2017-07-19T23:40:35.065Z,97.70
2017-07-19T23:43:04.012Z,97.90
2017-07-19T23:45:32.284Z,98.10
2017-07-19T23:48:00.416Z,98.20
2017-07-19T23:50:28.727Z,98.50
2017-07-19T23:52:56.902Z,98.70
2017-07-19T23:55:25.043Z,99.10
2017-07-19T23:57:53.203Z,99.60
